Time;durP1;ratioP1;P1;durP2;ratioP2;P2;SDS_P1;SDS_P2;PMS_P1;PMS_P2;Temp;Humidity;BMP_temperature;BMP_pressure;BME280_temperature;BME280_humidity;BME280_pressure;Samples;Min_cycle;Max_cycle;Signal;HPM_P1;HPM_P2
2022/05/26 00:00:51;;;;;;;2.65;1.73;;;;;;;;;;2114033;28;20203;-60
2022/05/26 00:01:52;;;;;;;4.28;1.90;;;;;;;;;;2113823;28;20504;-60
2022/05/26 00:02:54;;;;;;;3.35;1.80;;;;;;;;;;2113883;28;20149;-60
2022/05/26 00:03:55;;;;;;;2.65;1.70;;;;;;;;;;2113987;28;20104;-60
2022/05/26 00:04:56;;;;;;;3.25;1.85;;;;;;;;;;2113829;28;20125;-59
2022/05/26 00:05:58;;;;;;;3.35;2.00;;;;;;;;;;2113864;28;20426;-59
2022/05/26 00:06:59;;;;;;;3.35;2.17;;;;;;;;;;2113836;28;20054;-60
2022/05/26 00:08:00;;;;;;;2.33;1.77;;;;;;;;;;2114001;28;20054;-60
2022/05/26 00:09:01;;;;;;;2.83;1.70;;;;;;;;;;2113857;28;20048;-59
2022/05/26 00:10:02;;;;;;;3.85;1.77;;;;;;;;;;2113957;28;20052;-59
2022/05/26 00:11:05;;;;;;;2.00;1.70;;;;;;;;;;2113810;28;20048;-59
2022/05/26 00:12:06;;;;;;;2.35;1.83;;;;;;;;;;2113913;28;20043;-59
2022/05/26 00:13:08;;;;;;;5.57;1.90;;;;;;;;;;2113844;28;20176;-60
2022/05/26 00:14:10;;;;;;;6.07;2.45;;;;;;;;;;2113708;28;20547;-59
2022/05/26 00:15:12;;;;;;;3.80;2.22;;;;;;;;;;2113950;28;20130;-60
2022/05/26 00:16:13;;;;;;;4.55;1.95;;;;;;;;;;2113773;28;20129;-59
2022/05/26 00:17:14;;;;;;;2.67;1.90;;;;;;;;;;2113917;28;20044;-60
2022/05/26 00:18:16;;;;;;;2.53;1.80;;;;;;;;;;2113894;28;20127;-59
2022/05/26 00:19:18;;;;;;;3.53;1.83;;;;;;;;;;2105971;28;20127;-59
2022/05/26 00:20:18;;;;;;;4.53;1.88;;;;;;;;;;2105441;28;20131;-60
2022/05/26 00:21:20;;;;;;;3.60;1.87;;;;;;;;;;2105548;28;20037;-60
2022/05/26 00:22:21;;;;;;;6.32;1.98;;;;;;;;;;2105311;28;20540;-59
2022/05/26 00:23:22;;;;;;;2.83;1.67;;;;;;;;;;2112329;28;20134;-59
2022/05/26 00:24:23;;;;;;;4.68;1.80;;;;;;;;;;2113839;28;20123;-59
2022/05/26 00:25:24;;;;;;;2.50;1.70;;;;;;;;;;2113751;28;20060;-60
2022/05/26 00:26:25;;;;;;;2.25;1.48;;;;;;;;;;2113853;28;20053;-60
2022/05/26 00:27:27;;;;;;;3.10;1.80;;;;;;;;;;2113744;28;20122;-59
2022/05/26 00:28:28;;;;;;;3.60;2.13;;;;;;;;;;2113711;28;20197;-59
2022/05/26 00:29:29;;;;;;;2.70;1.88;;;;;;;;;;2113643;28;20177;-60
2022/05/26 00:30:30;;;;;;;3.42;2.08;;;;;;;;;;2113706;28;20499;-60
2022/05/26 00:31:31;;;;;;;3.77;2.60;;;;;;;;;;2113745;28;20051;-60
2022/05/26 00:32:32;;;;;;;5.70;2.15;;;;;;;;;;2113867;28;20138;-60
2022/05/26 00:33:34;;;;;;;2.07;1.70;;;;;;;;;;2113759;28;20071;-60
2022/05/26 00:34:35;;;;;;;2.95;1.80;;;;;;;;;;2113785;28;20052;-59
2022/05/26 00:35:37;;;;;;;4.40;2.00;;;;;;;;;;2113808;28;20048;-60
2022/05/26 00:36:38;;;;;;;4.53;2.10;;;;;;;;;;2113652;28;20054;-60
2022/05/26 00:37:39;;;;;;;2.78;1.80;;;;;;;;;;2113659;28;20405;-59
2022/05/26 00:38:40;;;;;;;2.63;1.55;;;;;;;;;;2113621;28;20446;-59
2022/05/26 00:39:41;;;;;;;3.47;2.22;;;;;;;;;;2113708;28;20476;-60
2022/05/26 00:40:43;;;;;;;3.58;2.05;;;;;;;;;;2113704;28;20157;-60
2022/05/26 00:41:45;;;;;;;2.78;1.90;;;;;;;;;;2113697;28;20173;-60
2022/05/26 00:42:49;;;;;;;4.72;2.15;;;;;;;;;;2114503;28;20055;-59
2022/05/26 00:43:50;;;;;;;3.22;1.83;;;;;;;;;;2115067;28;20051;-59
2022/05/26 00:44:51;;;;;;;4.05;2.08;;;;;;;;;;2115031;28;20052;-59
2022/05/26 00:45:54;;;;;;;4.47;1.67;;;;;;;;;;2115309;28;20134;-59
2022/05/26 00:46:57;;;;;;;3.55;2.13;;;;;;;;;;2115029;28;20184;-59
2022/05/26 00:47:59;;;;;;;3.17;1.77;;;;;;;;;;2115019;28;20046;-59
2022/05/26 00:49:01;;;;;;;2.95;1.67;;;;;;;;;;2115091;28;20053;-59
2022/05/26 00:50:05;;;;;;;3.85;2.05;;;;;;;;;;2115041;28;20488;-60
2022/05/26 00:51:06;;;;;;;2.80;2.00;;;;;;;;;;2115020;28;20130;-59
2022/05/26 00:52:09;;;;;;;3.25;1.83;;;;;;;;;;2115216;28;20126;-59
2022/05/26 00:53:13;;;;;;;4.13;1.52;;;;;;;;;;2115077;28;20075;-59
2022/05/26 00:54:17;;;;;;;5.93;1.70;;;;;;;;;;2115021;28;20036;-59
2022/05/26 00:55:20;;;;;;;3.30;2.03;;;;;;;;;;2115124;28;20088;-59
2022/05/26 00:56:25;;;;;;;3.78;2.03;;;;;;;;;;2115067;28;20111;-59
2022/05/26 00:57:29;;;;;;;3.40;2.03;;;;;;;;;;2115184;28;20134;-60
2022/05/26 00:58:31;;;;;;;2.47;1.70;;;;;;;;;;2115121;28;20122;-59
2022/05/26 00:59:37;;;;;;;3.25;1.90;;;;;;;;;;2115074;28;20136;-60
2022/05/26 01:00:39;;;;;;;2.88;1.85;;;;;;;;;;2115100;28;20127;-60
2022/05/26 01:01:40;;;;;;;3.75;2.05;;;;;;;;;;2115146;28;20134;-60
2022/05/26 01:02:43;;;;;;;2.80;1.40;;;;;;;;;;2115159;28;20048;-60
2022/05/26 01:03:47;;;;;;;4.30;1.60;;;;;;;;;;2114891;28;20052;-59
2022/05/26 01:04:50;;;;;;;2.58;1.70;;;;;;;;;;2114760;28;20403;-60
2022/05/26 01:05:53;;;;;;;2.97;2.03;;;;;;;;;;2115033;28;20134;-59
2022/05/26 01:06:57;;;;;;;3.20;1.70;;;;;;;;;;2115115;28;20241;-59
2022/05/26 01:07:59;;;;;;;4.60;1.90;;;;;;;;;;2114926;28;20076;-59
2022/05/26 01:09:02;;;;;;;2.45;1.55;;;;;;;;;;2114993;28;20100;-60
2022/05/26 01:10:03;;;;;;;3.88;1.80;;;;;;;;;;2115038;28;20051;-59
2022/05/26 01:11:04;;;;;;;1.77;1.63;;;;;;;;;;2115106;28;20107;-59
2022/05/26 01:12:06;;;;;;;2.47;1.63;;;;;;;;;;2115103;28;20047;-59
2022/05/26 01:13:07;;;;;;;3.80;1.67;;;;;;;;;;2114948;28;20498;-59
2022/05/26 01:14:10;;;;;;;5.22;1.95;;;;;;;;;;2114955;28;20138;-59
2022/05/26 01:15:13;;;;;;;3.30;1.85;;;;;;;;;;2115011;28;20093;-59
2022/05/26 01:16:20;;;;;;;2.65;1.60;;;;;;;;;;2115102;28;20160;-59
2022/05/26 01:17:28;;;;;;;4.10;1.70;;;;;;;;;;2114970;28;20155;-59
2022/05/26 01:18:33;;;;;;;3.22;1.80;;;;;;;;;;2114871;28;20054;-59
2022/05/26 01:19:51;;;;;;;3.80;1.35;;;;;;;;;;2114837;28;20079;-59
2022/05/26 01:20:57;;;;;;;3.40;1.55;;;;;;;;;;2114890;28;20500;-59
2022/05/26 01:22:02;;;;;;;3.38;1.70;;;;;;;;;;2114943;28;20088;-60
2022/05/26 01:23:28;;;;;;;1.88;1.42;;;;;;;;;;2115078;28;20044;-59
2022/05/26 01:24:40;;;;;;;3.53;1.85;;;;;;;;;;2114774;28;20053;-60
2022/05/26 01:25:49;;;;;;;5.90;1.50;;;;;;;;;;2115047;28;20086;-59
2022/05/26 01:27:09;;;;;;;2.33;1.63;;;;;;;;;;2115038;28;20126;-59
2022/05/26 01:28:15;;;;;;;3.80;1.67;;;;;;;;;;2114842;28;20048;-59
2022/05/26 01:29:35;;;;;;;3.38;1.50;;;;;;;;;;2114766;28;20583;-59
2022/05/26 01:30:41;;;;;;;5.65;1.80;;;;;;;;;;2114784;28;20485;-59
2022/05/26 01:31:48;;;;;;;3.38;1.95;;;;;;;;;;2115042;28;20126;-59
2022/05/26 01:33:22;;;;;;;2.33;1.42;;;;;;;;;;2114808;28;20051;-59
2022/05/26 01:34:28;;;;;;;4.07;1.70;;;;;;;;;;2114930;28;20043;-59
2022/05/26 01:35:30;;;;;;;2.65;1.60;;;;;;;;;;2114793;28;20145;-59
2022/05/26 01:36:35;;;;;;;3.70;1.80;;;;;;;;;;2114752;28;20130;-59
2022/05/26 01:37:40;;;;;;;3.00;1.42;;;;;;;;;;2114872;28;20050;-59
2022/05/26 01:38:48;;;;;;;2.20;1.45;;;;;;;;;;2114841;28;20051;-59
2022/05/26 01:39:54;;;;;;;4.40;1.80;;;;;;;;;;2114767;28;20152;-60
2022/05/26 01:40:59;;;;;;;2.97;1.80;;;;;;;;;;2114893;28;20408;-59
2022/05/26 01:42:10;;;;;;;4.80;1.70;;;;;;;;;;2114737;28;20044;-59
2022/05/26 01:43:16;;;;;;;5.00;2.08;;;;;;;;;;2114902;28;20114;-59
2022/05/26 01:44:21;;;;;;;3.67;2.03;;;;;;;;;;2114609;28;20177;-59
2022/05/26 01:45:31;;;;;;;9.32;1.65;;;;;;;;;;2114825;28;20035;-60
2022/05/26 01:46:36;;;;;;;6.88;2.17;;;;;;;;;;2114676;28;20138;-59
2022/05/26 01:47:41;;;;;;;4.10;1.50;;;;;;;;;;2114874;28;20039;-59
2022/05/26 01:48:45;;;;;;;3.55;1.77;;;;;;;;;;2114736;28;20067;-59
2022/05/26 01:49:48;;;;;;;4.22;1.33;;;;;;;;;;2114734;28;20130;-59
2022/05/26 01:50:52;;;;;;;2.58;1.63;;;;;;;;;;2114859;28;20044;-59
2022/05/26 01:51:56;;;;;;;5.05;1.95;;;;;;;;;;2114844;28;20047;-59
2022/05/26 01:53:06;;;;;;;2.55;1.40;;;;;;;;;;2114639;28;20051;-59
2022/05/26 01:54:10;;;;;;;3.83;1.63;;;;;;;;;;2114419;28;20200;-60
2022/05/26 01:55:12;;;;;;;4.90;1.63;;;;;;;;;;2114926;28;20048;-59
2022/05/26 01:56:17;;;;;;;3.17;1.65;;;;;;;;;;2114638;28;20587;-59
2022/05/26 01:57:20;;;;;;;4.68;1.75;;;;;;;;;;2114680;28;20130;-59
2022/05/26 01:58:25;;;;;;;3.60;1.50;;;;;;;;;;2114791;28;20146;-59
2022/05/26 01:59:28;;;;;;;6.82;1.60;;;;;;;;;;2114590;28;20046;-59
2022/05/26 02:00:30;;;;;;;2.70;1.40;;;;;;;;;;2114722;28;20045;-59
2022/05/26 02:01:33;;;;;;;3.78;1.40;;;;;;;;;;2114755;28;20075;-59
2022/05/26 02:02:36;;;;;;;3.05;1.55;;;;;;;;;;2114730;28;20124;-59
2022/05/26 02:03:39;;;;;;;4.25;1.40;;;;;;;;;;2114580;28;20522;-59
2022/05/26 02:04:42;;;;;;;2.40;1.67;;;;;;;;;;2114642;28;20044;-59
2022/05/26 02:05:46;;;;;;;3.63;1.40;;;;;;;;;;2114710;28;20126;-59
2022/05/26 02:06:49;;;;;;;4.95;1.75;;;;;;;;;;2114508;28;20130;-59
2022/05/26 02:07:52;;;;;;;4.65;2.65;;;;;;;;;;2114514;28;20126;-60
2022/05/26 02:08:55;;;;;;;2.63;1.77;;;;;;;;;;2114407;28;20111;-59
2022/05/26 02:09:58;;;;;;;4.97;1.38;;;;;;;;;;2114679;28;20071;-59
2022/05/26 02:11:01;;;;;;;3.47;1.40;;;;;;;;;;2114481;28;20556;-59
2022/05/26 02:12:05;;;;;;;3.75;1.45;;;;;;;;;;2114796;28;20181;-59
2022/05/26 02:13:08;;;;;;;3.13;1.50;;;;;;;;;;2114445;28;20126;-59
2022/05/26 02:14:12;;;;;;;2.38;1.45;;;;;;;;;;2114455;28;20629;-60
2022/05/26 02:15:15;;;;;;;3.47;1.63;;;;;;;;;;2114368;28;20122;-59
2022/05/26 02:16:18;;;;;;;2.53;1.42;;;;;;;;;;2114893;28;20203;-48
2022/05/26 02:17:22;;;;;;;2.55;1.60;;;;;;;;;;2114534;28;20047;-47
2022/05/26 02:18:27;;;;;;;4.28;1.48;;;;;;;;;;2114212;28;20050;-48
2022/05/26 02:19:32;;;;;;;2.92;1.77;;;;;;;;;;2106057;28;20473;-46
2022/05/26 02:20:35;;;;;;;2.70;1.40;;;;;;;;;;2106012;28;20420;-46
2022/05/26 02:21:38;;;;;;;3.90;1.70;;;;;;;;;;2105999;28;20520;-46
2022/05/26 02:22:41;;;;;;;3.72;1.23;;;;;;;;;;2106138;28;20135;-46
2022/05/26 02:23:46;;;;;;;3.25;1.50;;;;;;;;;;2106061;28;20044;-47
2022/05/26 02:24:50;;;;;;;3.53;1.58;;;;;;;;;;2105986;28;20131;-49
2022/05/26 02:25:51;;;;;;;2.90;1.55;;;;;;;;;;2105974;28;20048;-46
2022/05/26 02:26:52;;;;;;;5.18;1.30;;;;;;;;;;2106041;28;20123;-46
2022/05/26 02:27:54;;;;;;;4.38;1.60;;;;;;;;;;2106098;28;20633;-48
2022/05/26 02:30:14;;;;;;;4.95;1.67;;;;;;;;;;2106122;28;20050;-46
2022/05/26 02:31:16;;;;;;;2.30;1.63;;;;;;;;;;2106008;28;20186;-48
2022/05/26 02:32:18;;;;;;;6.30;1.52;;;;;;;;;;2106069;28;20098;-47
2022/05/26 02:33:20;;;;;;;3.78;1.60;;;;;;;;;;2105967;28;20135;-47
2022/05/26 02:34:21;;;;;;;9.13;1.80;;;;;;;;;;2105924;28;20055;-47
2022/05/26 02:35:24;;;;;;;2.47;1.42;;;;;;;;;;2106013;28;20127;-46
2022/05/26 02:36:27;;;;;;;3.97;1.55;;;;;;;;;;2106175;28;20052;-47
2022/05/26 02:37:30;;;;;;;3.92;1.63;;;;;;;;;;2105969;28;20048;-46
2022/05/26 02:38:31;;;;;;;1.98;1.33;;;;;;;;;;2105919;28;20485;-46
2022/05/26 02:39:32;;;;;;;2.45;1.50;;;;;;;;;;2105961;28;20091;-47
2022/05/26 02:40:34;;;;;;;5.83;1.90;;;;;;;;;;2105879;28;20040;-46
2022/05/26 02:41:35;;;;;;;3.67;1.73;;;;;;;;;;2105878;28;20142;-46
2022/05/26 02:42:36;;;;;;;;;;;;;;;;;;2106781;28;20127;-59
2022/05/26 02:43:37;;;;;;;4.97;2.00;;;;;;;;;;2105924;28;20018;-59
2022/05/26 02:44:41;;;;;;;2.03;1.55;;;;;;;;;;2105988;28;20048;-59
2022/05/26 02:45:48;;;;;;;2.55;1.50;;;;;;;;;;2106040;28;20584;-59
2022/05/26 02:46:57;;;;;;;3.00;1.80;;;;;;;;;;2106143;28;20127;-47
2022/05/26 02:48:01;;;;;;;3.72;1.77;;;;;;;;;;2105963;28;20553;-46
2022/05/26 02:49:08;;;;;;;2.85;1.88;;;;;;;;;;2105871;28;20131;-46
2022/05/26 02:50:15;;;;;;;3.53;1.60;;;;;;;;;;2105928;28;20489;-46
2022/05/26 02:51:21;;;;;;;4.47;2.30;;;;;;;;;;2106132;28;20040;-47
2022/05/26 02:52:25;;;;;;;3.35;2.00;;;;;;;;;;2106103;28;20481;-47
2022/05/26 02:53:30;;;;;;;3.75;1.92;;;;;;;;;;2105801;28;20047;-45
2022/05/26 02:54:36;;;;;;;6.50;1.77;;;;;;;;;;2105870;28;20047;-45
2022/05/26 02:55:43;;;;;;;2.75;1.70;;;;;;;;;;2105852;28;20044;-45
2022/05/26 02:56:50;;;;;;;3.60;1.83;;;;;;;;;;2105831;28;20123;-46
2022/05/26 02:57:59;;;;;;;3.40;1.52;;;;;;;;;;2106108;28;20116;-45
2022/05/26 02:59:05;;;;;;;2.45;1.90;;;;;;;;;;2106187;28;20044;-63
2022/05/26 03:00:09;;;;;;;2.83;1.80;;;;;;;;;;2105888;28;20092;-63
2022/05/26 03:01:14;;;;;;;2.33;1.90;;;;;;;;;;2105806;28;20412;-64
2022/05/26 03:02:19;;;;;;;4.57;1.73;;;;;;;;;;2106138;28;20063;-64
2022/05/26 03:03:22;;;;;;;4.20;2.00;;;;;;;;;;2105885;28;20074;-64
2022/05/26 03:04:25;;;;;;;4.10;1.90;;;;;;;;;;2105801;28;20135;-63
2022/05/26 03:05:28;;;;;;;4.75;1.85;;;;;;;;;;2105307;28;20040;-62
2022/05/26 03:06:31;;;;;;;5.55;2.25;;;;;;;;;;2106125;28;20055;-62
2022/05/26 03:07:34;;;;;;;4.03;1.80;;;;;;;;;;2105722;28;20128;-63
2022/05/26 03:08:39;;;;;;;2.97;1.70;;;;;;;;;;2105948;28;20192;-46
2022/05/26 03:09:41;;;;;;;3.85;1.83;;;;;;;;;;2105915;28;20123;-46
2022/05/26 03:10:46;;;;;;;6.38;2.40;;;;;;;;;;2105705;28;20139;-46
2022/05/26 03:11:48;;;;;;;3.05;2.05;;;;;;;;;;2109731;28;20040;-46
2022/05/26 03:12:49;;;;;;;6.07;2.15;;;;;;;;;;2114218;28;20178;-46
2022/05/26 03:13:51;;;;;;;5.97;2.00;;;;;;;;;;2114009;28;20075;-46
2022/05/26 03:14:51;;;;;;;4.82;2.20;;;;;;;;;;2114348;28;20039;-46
2022/05/26 03:15:54;;;;;;;4.23;2.10;;;;;;;;;;2114273;28;20047;-46
2022/05/26 03:16:55;;;;;;;4.03;2.50;;;;;;;;;;2114224;28;20287;-46
2022/05/26 03:17:57;;;;;;;4.68;1.98;;;;;;;;;;2114250;28;20126;-46
2022/05/26 03:18:58;;;;;;;4.55;2.35;;;;;;;;;;2114030;28;20043;-46
2022/05/26 03:19:59;;;;;;;3.47;2.30;;;;;;;;;;2114232;28;20044;-45
2022/05/26 03:21:01;;;;;;;3.90;2.40;;;;;;;;;;2114145;28;20054;-46
2022/05/26 03:22:03;;;;;;;5.55;2.53;;;;;;;;;;2114303;28;20054;-47
2022/05/26 03:23:04;;;;;;;2.92;2.40;;;;;;;;;;2114005;28;20131;-46
2022/05/26 03:24:06;;;;;;;4.00;2.55;;;;;;;;;;2114038;28;20047;-47
2022/05/26 03:25:07;;;;;;;;;;;;;;;;;;2114698;28;20054;-68
2022/05/26 03:26:08;;;;;;;5.63;2.85;;;;;;;;;;2114093;28;19920;-66
2022/05/26 03:27:10;;;;;;;3.78;2.60;;;;;;;;;;2114162;28;20152;-69
2022/05/26 03:28:11;;;;;;;3.75;2.67;;;;;;;;;;2114005;28;20126;-67
2022/05/26 03:29:12;;;;;;;5.25;2.53;;;;;;;;;;2113473;28;20076;-66
2022/05/26 03:30:13;;;;;;;8.47;2.67;;;;;;;;;;2114191;28;20105;-64
2022/05/26 03:31:14;;;;;;;6.78;3.00;;;;;;;;;;2114317;28;20077;-59
2022/05/26 03:32:15;;;;;;;5.93;2.63;;;;;;;;;;2114024;28;20043;-60
2022/05/26 03:33:16;;;;;;;8.38;3.05;;;;;;;;;;2114110;28;20606;-62
2022/05/26 03:40:56;;;;;;;5.22;3.05;;;;;;;;;;2114301;28;20044;-63
2022/05/26 03:41:57;;;;;;;;;;;;;;;;;;2114627;28;20078;-63
2022/05/26 03:42:58;;;;;;;4.20;2.67;;;;;;;;;;2114015;28;19926;-63
2022/05/26 03:44:00;;;;;;;7.78;3.50;;;;;;;;;;2113914;28;20526;-62
2022/05/26 03:45:02;;;;;;;5.30;3.05;;;;;;;;;;2113974;28;20477;-62
2022/05/26 03:46:03;;;;;;;7.10;3.00;;;;;;;;;;2114137;28;20126;-63
2022/05/26 03:47:05;;;;;;;5.53;3.38;;;;;;;;;;2114023;28;20058;-65
2022/05/26 03:48:06;;;;;;;5.45;3.38;;;;;;;;;;2114135;28;20517;-64
2022/05/26 03:49:07;;;;;;;5.38;3.13;;;;;;;;;;2113930;28;20134;-63
2022/05/26 03:50:09;;;;;;;6.82;3.33;;;;;;;;;;2113962;28;20122;-63
2022/05/26 03:51:10;;;;;;;6.65;3.50;;;;;;;;;;2113996;28;20040;-71
2022/05/26 03:52:11;;;;;;;8.18;3.20;;;;;;;;;;2114185;28;20126;-61
2022/05/26 03:53:12;;;;;;;4.90;3.70;;;;;;;;;;2114208;28;20040;-63
2022/05/26 03:54:14;;;;;;;4.70;3.53;;;;;;;;;;2114803;28;20126;-62
2022/05/26 03:55:15;;;;;;;5.53;3.50;;;;;;;;;;2114259;28;20120;-60
2022/05/26 03:56:16;;;;;;;5.90;3.40;;;;;;;;;;2113865;28;20140;-60
2022/05/26 03:57:21;;;;;;;7.73;3.90;;;;;;;;;;2114073;28;20097;-60
2022/05/26 03:58:23;;;;;;;4.53;3.38;;;;;;;;;;2114070;28;20134;-59
2022/05/26 03:59:24;;;;;;;5.45;3.65;;;;;;;;;;2113991;28;20043;-61
2022/05/26 04:00:26;;;;;;;4.20;3.07;;;;;;;;;;2114067;28;20488;-62
2022/05/26 04:01:27;;;;;;;5.97;3.60;;;;;;;;;;2114020;28;20040;-62
2022/05/26 04:02:28;;;;;;;5.10;3.50;;;;;;;;;;2113975;28;20048;-62
2022/05/26 04:03:29;;;;;;;5.55;3.05;;;;;;;;;;2114094;28;20047;-62
2022/05/26 04:04:31;;;;;;;5.55;3.80;;;;;;;;;;2113854;28;20570;-61
2022/05/26 04:05:32;;;;;;;;;;;;;;;;;;2114336;28;20079;-61
2022/05/26 04:06:33;;;;;;;6.53;3.40;;;;;;;;;;2114127;28;20289;-45
2022/05/26 04:07:35;;;;;;;5.70;3.43;;;;;;;;;;2113641;28;20072;-45
2022/05/26 04:08:36;;;;;;;5.13;3.17;;;;;;;;;;2113858;28;20177;-46
2022/05/26 04:09:37;;;;;;;7.70;3.60;;;;;;;;;;2113960;28;20078;-44
2022/05/26 04:10:39;;;;;;;5.30;3.05;;;;;;;;;;2114019;28;20048;-45
2022/05/26 04:11:40;;;;;;;4.78;3.22;;;;;;;;;;2114070;28;20108;-45
2022/05/26 04:12:42;;;;;;;5.90;3.63;;;;;;;;;;2113926;28;20488;-45
2022/05/26 04:13:43;;;;;;;6.03;3.45;;;;;;;;;;2113862;28;20421;-46
2022/05/26 04:14:44;;;;;;;8.40;3.80;;;;;;;;;;2114231;28;20122;-64
2022/05/26 04:15:45;;;;;;;5.47;3.50;;;;;;;;;;2114087;28;20130;-65
2022/05/26 04:16:46;;;;;;;3.63;2.72;;;;;;;;;;2113838;28;20496;-61
2022/05/26 04:17:48;;;;;;;4.87;3.20;;;;;;;;;;2114913;28;20047;-64
2022/05/26 04:18:51;;;;;;;5.65;3.22;;;;;;;;;;2111294;28;20287;-64
2022/05/26 04:19:52;;;;;;;6.30;3.65;;;;;;;;;;2107047;28;20048;-63
2022/05/26 04:21:02;;;;;;;6.47;3.53;;;;;;;;;;2107327;28;20048;-46
2022/05/26 04:22:15;;;;;;;4.60;3.20;;;;;;;;;;2106970;28;20050;-45
2022/05/26 04:23:16;;;;;;;5.03;3.58;;;;;;;;;;2107118;28;20086;-44
2022/05/26 04:24:17;;;;;;;7.13;3.53;;;;;;;;;;2106954;28;20071;-46
2022/05/26 04:25:20;;;;;;;7.43;3.37;;;;;;;;;;2107111;28;20094;-45
2022/05/26 04:26:21;;;;;;;5.40;3.45;;;;;;;;;;2106779;28;20416;-45
2022/05/26 04:27:23;;;;;;;5.83;3.20;;;;;;;;;;2106878;28;20130;-45
2022/05/26 04:28:24;;;;;;;6.80;3.85;;;;;;;;;;2106807;28;20041;-45
2022/05/26 04:29:25;;;;;;;4.63;3.25;;;;;;;;;;2106729;28;20134;-45
2022/05/26 04:30:26;;;;;;;5.55;3.50;;;;;;;;;;2106851;28;20043;-45
2022/05/26 04:31:27;;;;;;;6.45;3.75;;;;;;;;;;2106923;28;20048;-44
2022/05/26 04:32:29;;;;;;;6.00;3.65;;;;;;;;;;2106807;28;20044;-45
2022/05/26 04:33:30;;;;;;;5.82;3.63;;;;;;;;;;2106832;28;20131;-45
2022/05/26 04:34:31;;;;;;;4.43;3.28;;;;;;;;;;2106696;28;20143;-45
2022/05/26 04:35:32;;;;;;;6.80;3.95;;;;;;;;;;2106889;28;20127;-44
2022/05/26 04:36:33;;;;;;;6.03;3.72;;;;;;;;;;2106926;28;20046;-44
2022/05/26 04:37:34;;;;;;;6.87;3.80;;;;;;;;;;2106803;28;20051;-44
2022/05/26 04:38:35;;;;;;;7.30;3.67;;;;;;;;;;2106646;28;20062;-45
2022/05/26 04:39:36;;;;;;;6.28;3.38;;;;;;;;;;2106761;28;20058;-45
2022/05/26 04:40:39;;;;;;;5.47;3.22;;;;;;;;;;2106729;28;20079;-45
2022/05/26 04:41:41;;;;;;;6.38;3.65;;;;;;;;;;2106668;28;20477;-44
2022/05/26 04:42:43;;;;;;;6.20;3.58;;;;;;;;;;2106689;28;20052;-45
2022/05/26 04:43:44;;;;;;;7.20;3.58;;;;;;;;;;2106733;28;20071;-45
2022/05/26 04:44:46;;;;;;;5.43;4.03;;;;;;;;;;2106987;28;20044;-44
2022/05/26 04:45:47;;;;;;;6.80;3.58;;;;;;;;;;2106771;28;20126;-45
2022/05/26 04:46:48;;;;;;;6.93;3.97;;;;;;;;;;2106791;28;20040;-46
2022/05/26 04:47:49;;;;;;;5.00;3.10;;;;;;;;;;2113924;28;20135;-46
2022/05/26 04:48:50;;;;;;;7.43;4.07;;;;;;;;;;2115105;28;20534;-45
2022/05/26 04:49:51;;;;;;;7.15;4.05;;;;;;;;;;2115097;28;20143;-45
2022/05/26 04:50:53;;;;;;;5.70;3.83;;;;;;;;;;2115176;28;20044;-45
2022/05/26 04:51:55;;;;;;;10.13;3.90;;;;;;;;;;2115242;28;20162;-45
2022/05/26 04:52:56;;;;;;;4.40;3.28;;;;;;;;;;2115171;28;20412;-45
2022/05/26 04:53:57;;;;;;;6.32;3.88;;;;;;;;;;2115036;28;20095;-45
2022/05/26 04:54:58;;;;;;;5.95;3.80;;;;;;;;;;2115089;28;20492;-45
2022/05/26 04:56:00;;;;;;;5.25;3.40;;;;;;;;;;2114543;28;20050;-45
2022/05/26 04:57:01;;;;;;;5.22;3.65;;;;;;;;;;2114993;28;20082;-45
2022/05/26 04:58:02;;;;;;;5.65;3.50;;;;;;;;;;2115075;28;20047;-44
2022/05/26 04:59:04;;;;;;;5.25;3.72;;;;;;;;;;2115267;28;20437;-46
2022/05/26 05:00:07;;;;;;;6.90;3.58;;;;;;;;;;2115191;28;20043;-44
2022/05/26 05:01:12;;;;;;;7.32;3.67;;;;;;;;;;2115006;28;20386;-44
2022/05/26 05:02:13;;;;;;;6.30;3.92;;;;;;;;;;2115033;28;20047;-46
2022/05/26 05:03:14;;;;;;;6.43;4.13;;;;;;;;;;2115035;28;20507;-44
2022/05/26 05:04:16;;;;;;;8.63;3.67;;;;;;;;;;2114751;28;20053;-48
2022/05/26 05:05:17;;;;;;;7.95;4.18;;;;;;;;;;2115073;28;20130;-63
2022/05/26 05:06:18;;;;;;;5.35;3.78;;;;;;;;;;2114916;28;20400;-69
2022/05/26 05:07:19;;;;;;;5.93;3.80;;;;;;;;;;2114995;28;20488;-68
2022/05/26 05:08:20;;;;;;;5.63;3.47;;;;;;;;;;2115060;28;20043;-66
2022/05/26 05:09:22;;;;;;;6.13;3.43;;;;;;;;;;2114977;28;20044;-65
2022/05/26 05:10:23;;;;;;;8.82;4.00;;;;;;;;;;2115072;28;20048;-59
2022/05/26 05:11:25;;;;;;;6.57;4.25;;;;;;;;;;2115112;28;20130;-47
2022/05/26 05:12:26;;;;;;;6.93;4.00;;;;;;;;;;2115054;28;20054;-45
2022/05/26 05:13:27;;;;;;;5.18;3.78;;;;;;;;;;2114905;28;20047;-46
2022/05/26 05:14:31;;;;;;;6.95;4.00;;;;;;;;;;2114742;28;20414;-46
2022/05/26 05:15:34;;;;;;;9.07;4.40;;;;;;;;;;2114890;28;20044;-47
2022/05/26 05:16:42;;;;;;;5.68;3.83;;;;;;;;;;2114873;28;20495;-46
2022/05/26 05:17:44;;;;;;;5.20;3.80;;;;;;;;;;2114829;28;20397;-46
2022/05/26 05:18:45;;;;;;;;;;;;;;;;;;2112153;28;20044;-45
2022/05/26 05:19:47;;;;;;;6.35;4.38;;;;;;;;;;2106639;28;20014;-45
2022/05/26 05:20:49;;;;;;;5.00;3.78;;;;;;;;;;2106501;28;20070;-46
2022/05/26 05:21:53;;;;;;;5.68;3.92;;;;;;;;;;2106504;28;20047;-46
2022/05/26 05:22:57;;;;;;;6.90;3.90;;;;;;;;;;2106611;28;20127;-45
2022/05/26 05:24:01;;;;;;;8.27;4.20;;;;;;;;;;2106296;28;20544;-45
2022/05/26 05:25:04;;;;;;;10.27;4.63;;;;;;;;;;2106474;28;20054;-45
2022/05/26 05:26:07;;;;;;;5.32;3.92;;;;;;;;;;2106539;28;20132;-45
2022/05/26 05:27:13;;;;;;;8.50;4.43;;;;;;;;;;2106517;28;20044;-45
2022/05/26 05:28:16;;;;;;;5.88;3.95;;;;;;;;;;2106082;28;20131;-46
2022/05/26 05:29:18;;;;;;;5.22;3.85;;;;;;;;;;2106329;28;20504;-46
2022/05/26 05:30:22;;;;;;;8.98;4.00;;;;;;;;;;2106510;28;20119;-46
2022/05/26 05:31:26;;;;;;;5.75;3.90;;;;;;;;;;2106456;28;20122;-46
2022/05/26 05:32:28;;;;;;;5.47;4.03;;;;;;;;;;2106490;28;20044;-63
2022/05/26 05:33:31;;;;;;;8.32;4.40;;;;;;;;;;2106397;28;20044;-63
2022/05/26 05:34:35;;;;;;;6.00;3.90;;;;;;;;;;2106359;28;20159;-62
2022/05/26 05:35:43;;;;;;;8.30;4.25;;;;;;;;;;2106418;28;20131;-64
2022/05/26 05:36:45;;;;;;;7.00;4.50;;;;;;;;;;2106496;28;20051;-62
2022/05/26 05:37:46;;;;;;;7.28;4.55;;;;;;;;;;2106375;28;20264;-61
2022/05/26 05:38:47;;;;;;;8.55;4.50;;;;;;;;;;2106338;28;20055;-61
2022/05/26 05:39:48;;;;;;;6.80;4.63;;;;;;;;;;2107142;28;20058;-61
2022/05/26 05:40:50;;;;;;;6.70;4.60;;;;;;;;;;2114904;28;20059;-61
2022/05/26 05:41:54;;;;;;;7.75;4.90;;;;;;;;;;2114940;28;20492;-61
2022/05/26 05:42:56;;;;;;;7.32;4.90;;;;;;;;;;2115118;28;20047;-61
2022/05/26 05:43:56;;;;;;;;;;;;;;;;;;2115219;28;20047;-62
2022/05/26 05:44:58;;;;;;;6.25;3.83;;;;;;;;;;2114667;28;19920;-62
2022/05/26 05:45:59;;;;;;;6.85;4.20;;;;;;;;;;2114894;28;20047;-61
2022/05/26 05:47:01;;;;;;;8.47;4.60;;;;;;;;;;2114770;28;20039;-61
2022/05/26 05:48:03;;;;;;;8.15;4.85;;;;;;;;;;2114746;28;20565;-61
2022/05/26 05:49:04;;;;;;;6.38;4.38;;;;;;;;;;2114631;28;20528;-62
2022/05/26 05:50:06;;;;;;;7.85;4.80;;;;;;;;;;2114820;28;20146;-61
2022/05/26 05:51:06;;;;;;;;;;;;;;;;;;2115119;28;20598;-60
2022/05/26 05:52:09;;;;;;;8.32;5.40;;;;;;;;;;2114898;28;20086;-61
2022/05/26 05:53:11;;;;;;;7.95;4.20;;;;;;;;;;2114595;28;20461;-60
2022/05/26 05:54:12;;;;;;;10.30;4.82;;;;;;;;;;2114916;28;20100;-60
2022/05/26 05:55:14;;;;;;;7.05;4.88;;;;;;;;;;2114786;28;20047;-61
2022/05/26 05:56:15;;;;;;;8.18;4.53;;;;;;;;;;2114571;28;20392;-61
2022/05/26 05:57:16;;;;;;;9.10;4.70;;;;;;;;;;2114831;28;20043;-60
2022/05/26 05:58:18;;;;;;;5.95;4.72;;;;;;;;;;2114633;28;20035;-64
2022/05/26 05:59:19;;;;;;;8.18;5.22;;;;;;;;;;2114670;28;20127;-64
2022/05/26 06:00:20;;;;;;;7.67;5.50;;;;;;;;;;2114506;28;20070;-64
2022/05/26 06:01:27;;;;;;;8.43;5.28;;;;;;;;;;2114733;28;20044;-65
2022/05/26 06:02:28;;;;;;;8.82;5.53;;;;;;;;;;2114672;28;20075;-64
2022/05/26 06:03:36;;;;;;;7.32;4.68;;;;;;;;;;2114889;28;20433;-65
2022/05/26 06:04:41;;;;;;;7.32;5.05;;;;;;;;;;2114652;28;20050;-63
2022/05/26 06:05:43;;;;;;;5.63;4.38;;;;;;;;;;2114723;28;20126;-65
2022/05/26 06:06:44;;;;;;;7.60;5.40;;;;;;;;;;2114723;28;20116;-45
2022/05/26 06:07:45;;;;;;;7.47;5.10;;;;;;;;;;2114621;28;20044;-45
2022/05/26 06:08:46;;;;;;;7.22;5.00;;;;;;;;;;2114566;28;20079;-45
2022/05/26 06:09:48;;;;;;;7.87;5.27;;;;;;;;;;2114509;28;20101;-45
2022/05/26 06:10:50;;;;;;;8.95;5.85;;;;;;;;;;2114856;28;20100;-45
2022/05/26 06:11:51;;;;;;;8.87;6.03;;;;;;;;;;2114596;28;20124;-45
2022/05/26 06:12:52;;;;;;;7.82;5.40;;;;;;;;;;2114770;28;20052;-45
2022/05/26 06:13:54;;;;;;;8.23;4.28;;;;;;;;;;2114497;28;20071;-45
2022/05/26 06:14:55;;;;;;;5.65;3.78;;;;;;;;;;2114843;28;20122;-45
2022/05/26 06:15:56;;;;;;;4.47;3.30;;;;;;;;;;2114510;28;20138;-45
2022/05/26 06:16:57;;;;;;;4.23;3.43;;;;;;;;;;2114740;28;20048;-63
2022/05/26 06:17:59;;;;;;;4.65;3.63;;;;;;;;;;2114427;28;20765;-63
2022/05/26 06:19:00;;;;;;;5.53;3.05;;;;;;;;;;2109123;28;20044;-62
2022/05/26 06:20:01;;;;;;;3.95;2.58;;;;;;;;;;2106040;28;20480;-63
2022/05/26 06:21:03;;;;;;;2.95;2.40;;;;;;;;;;2106245;28;20123;-45
2022/05/26 06:22:04;;;;;;;;;;;;;;;;;;2106660;28;20052;-45
2022/05/26 06:23:05;;;;;;;3.30;1.98;;;;;;;;;;2106234;28;19924;-45
2022/05/26 06:24:09;;;;;;;4.07;1.93;;;;;;;;;;2106236;28;20066;-64
2022/05/26 06:25:10;;;;;;;4.13;1.95;;;;;;;;;;2106251;28;20048;-46
2022/05/26 06:26:11;;;;;;;2.38;1.80;;;;;;;;;;2106795;28;20131;-45